This is the latest recevied weather packets stored in our database for station/object WP3OF-5. If no packets are shown the sender has not sent any weather packets the latest 10 day(s).
| Time | Temp. | Humidity | Pressure | Rain* | Wind** | Luminosity | Snow |
|---|---|---|---|---|---|---|---|
| 1777747151 | 31.11° C | 68% | 1015.1 hPa | 0 mm | - | - | - |
| 1777746847 | 30.56° C | 70% | 1014.7 hPa | 0 mm | - | - | - |
| 1777746542 | 30.56° C | 71% | 1014.7 hPa | 0 mm | - | - | - |
| 1777746238 | 30.56° C | 70% | 1014.7 hPa | 0 mm | - | - | - |
| 1777745934 | 31.11° C | 70% | 1015 hPa | 0 mm | - | - | - |
| 1777745633 | 31.11° C | 71% | 1015 hPa | 0 mm | - | - | - |
| 1777745331 | 31.11° C | 71% | 1015 hPa | 0 mm | - | - | - |
| 1777745028 | 31.11° C | 69% | 1015 hPa | 0 mm | - | - | - |
| 1777744724 | 30.56° C | 72% | 1015.2 hPa | 0 mm | - | - | - |
| 1777744418 | 31.11° C | 69% | 1015.5 hPa | 0 mm | - | - | - |
| 1777744116 | 31.11° C | 69% | 1015.3 hPa | 0 mm | - | - | - |
| 1777743812 | 30.56° C | 69% | 1015.4 hPa | 0 mm | - | - | - |
| 1777743509 | 30° C | 73% | 1015.4 hPa | 0 mm | - | - | - |
| 1777743206 | 29.44° C | 74% | 1015.6 hPa | 0 mm | - | - | - |
| 1777742904 | 30.56° C | 71% | 1015.6 hPa | 0 mm | - | - | - |
| 1777742601 | 31.11° C | 69% | 1015.5 hPa | 0 mm | - | - | - |
| 1777742296 | 31.11° C | 68% | 1015.7 hPa | 0 mm | - | - | - |
| 1777741993 | 30.56° C | 72% | 1015.8 hPa | 0 mm | - | - | - |
| 1777741690 | 31.11° C | 70% | 1015.9 hPa | 0 mm | - | - | - |
| 1777741386 | 31.11° C | 69% | 1015.9 hPa | 0 mm | - | - | - |
| 1777741083 | 31.11° C | 66% | 1015.8 hPa | 0 mm | - | - | - |
| 1777740780 | 31.67° C | 62% | 1016.1 hPa | 0 mm | - | - | - |
| 1777740476 | 32.22° C | 57% | 1015.8 hPa | 0 mm | - | - | - |
| 1777740174 | 32.22° C | 57% | 1016.2 hPa | 0 mm | - | - | - |
| 1777739869 | 31.67° C | 59% | 1016 hPa | 0 mm | - | - | - |
* Rain latest hour (hover to see other rain measurements)
** Current wind speed in m/s (hover to see current wind gust speed)